createdAt,value
2023-01-17T00:02:01.713Z,0.40
2023-01-17T00:04:48.146Z,0.30
2023-01-17T00:07:37.193Z,0.30
2023-01-17T00:10:14.016Z,0.43
2023-01-17T00:13:03.150Z,0.40
2023-01-17T00:15:31.736Z,0.30
2023-01-17T00:17:59.302Z,0.52
2023-01-17T00:20:48.849Z,0.40
2023-01-17T00:23:39.245Z,0.40
2023-01-17T00:26:16.676Z,0.43
2023-01-17T00:28:44.522Z,0.60
2023-01-17T00:31:17.719Z,0.40
2023-01-17T00:33:45.085Z,0.50
2023-01-17T00:36:12.822Z,0.40
2023-01-17T00:38:40.903Z,0.20
2023-01-17T00:41:10.518Z,0.40
2023-01-17T00:43:56.755Z,0.30
2023-01-17T00:46:43.333Z,0.32
2023-01-17T00:49:29.014Z,0.30
2023-01-17T00:52:14.785Z,0.30
2023-01-17T00:55:00.755Z,0.73
2023-01-17T00:57:46.595Z,0.40
2023-01-17T01:00:32.761Z,0.55
2023-01-17T01:03:18.389Z,0.40
2023-01-17T01:06:04.203Z,0.47
2023-01-17T01:08:50.424Z,0.30
2023-01-17T01:11:39.417Z,0.30
2023-01-17T01:14:28.562Z,0.55
2023-01-17T01:17:14.286Z,0.30
2023-01-17T01:20:00.055Z,0.40
2023-01-17T01:22:45.675Z,0.33
2023-01-17T01:25:31.455Z,0.30
2023-01-17T01:28:27.674Z,0.50
2023-01-17T01:31:13.321Z,0.30
2023-01-17T01:33:40.404Z,0.45
2023-01-17T01:36:09.296Z,0.40
2023-01-17T01:38:36.830Z,0.50
2023-01-17T01:41:04.946Z,0.40
2023-01-17T01:43:53.497Z,0.40
2023-01-17T01:46:38.668Z,0.40
2023-01-17T01:49:11.903Z,0.30
2023-01-17T01:51:44.396Z,0.28
2023-01-17T01:54:22.686Z,0.30
2023-01-17T01:56:53.189Z,0.20
2023-01-17T01:59:22.986Z,0.30
2023-01-17T02:01:55.502Z,0.20
2023-01-17T02:04:24.057Z,0.25
2023-01-17T02:07:03.687Z,0.20
2023-01-17T02:09:30.784Z,0.30
2023-01-17T02:11:57.974Z,0.20
2023-01-17T02:14:24.989Z,0.20
2023-01-17T02:17:15.798Z,0.30
2023-01-17T02:20:27.708Z,0.20
2023-01-17T02:23:47.638Z,0.20
2023-01-17T02:26:53.953Z,0.50
2023-01-17T02:29:57.985Z,0.30
2023-01-17T02:32:52.880Z,0.40
2023-01-17T02:35:54.732Z,0.40
2023-01-17T02:38:36.847Z,0.40
2023-01-17T02:41:13.699Z,0.47
2023-01-17T02:43:41.402Z,0.60
2023-01-17T02:46:09.893Z,0.40
2023-01-17T02:48:38.083Z,0.40
2023-01-17T02:51:26.144Z,0.50
2023-01-17T02:54:31.901Z,0.60
2023-01-17T02:57:13.456Z,0.60
2023-01-17T02:59:52.447Z,0.52
2023-01-17T03:02:41.115Z,0.77
2023-01-17T03:05:21.452Z,0.60
2023-01-17T03:07:50.359Z,0.60
2023-01-17T03:10:19.279Z,0.80
2023-01-17T03:12:46.521Z,0.73
2023-01-17T03:15:17.589Z,0.60
2023-01-17T03:17:52.072Z,0.40
2023-01-17T03:20:22.352Z,0.50
2023-01-17T03:22:49.807Z,0.43
2023-01-17T03:25:17.648Z,0.50
2023-01-17T03:27:44.785Z,0.50
2023-01-17T03:30:12.739Z,0.80
2023-01-17T03:32:40.296Z,0.55
2023-01-17T03:35:07.949Z,0.43
2023-01-17T03:37:35.261Z,0.50
2023-01-17T03:40:02.371Z,0.57
2023-01-17T03:42:29.438Z,0.50
2023-01-17T03:44:56.562Z,0.50
2023-01-17T03:47:23.722Z,0.40
2023-01-17T03:49:52.027Z,0.30
2023-01-17T03:52:19.145Z,0.60
2023-01-17T03:54:46.209Z,0.40
2023-01-17T03:57:13.321Z,0.40
2023-01-17T03:59:50.254Z,0.40
2023-01-17T04:02:44.883Z,0.50
2023-01-17T04:05:12.006Z,0.40
2023-01-17T04:07:39.105Z,0.30
2023-01-17T04:10:07.269Z,0.50
2023-01-17T04:12:34.331Z,0.30
2023-01-17T04:15:01.463Z,0.40
2023-01-17T04:17:28.822Z,0.30
2023-01-17T04:19:55.947Z,0.40
2023-01-17T04:22:23.077Z,0.30
2023-01-17T04:24:50.152Z,0.30
2023-01-17T04:27:17.287Z,0.30
2023-01-17T04:29:46.842Z,0.60
2023-01-17T04:32:14.710Z,0.30
2023-01-17T04:34:41.960Z,0.30
2023-01-17T04:37:09.036Z,0.30
2023-01-17T04:39:36.143Z,0.30
2023-01-17T04:42:03.264Z,0.55
2023-01-17T04:44:30.351Z,0.30
2023-01-17T04:46:57.469Z,0.40
2023-01-17T04:49:24.481Z,0.30
2023-01-17T04:51:51.566Z,0.68
2023-01-17T04:54:18.647Z,0.30
2023-01-17T04:56:45.744Z,0.50
2023-01-17T04:59:12.842Z,0.50
2023-01-17T05:01:40.008Z,0.30
2023-01-17T05:04:07.234Z,0.30
2023-01-17T05:06:34.365Z,0.35
2023-01-17T05:09:02.768Z,0.35
2023-01-17T05:11:29.892Z,0.30
2023-01-17T05:13:56.902Z,0.40
2023-01-17T05:16:24.189Z,0.57
2023-01-17T05:18:53.395Z,0.30
2023-01-17T05:21:24.200Z,0.50
2023-01-17T05:23:51.365Z,0.55
2023-01-17T05:26:18.465Z,0.40
2023-01-17T05:28:45.548Z,0.75
2023-01-17T05:31:12.722Z,0.50
2023-01-17T05:33:39.798Z,0.68
2023-01-17T05:36:07.436Z,0.80
2023-01-17T05:38:34.476Z,0.87
2023-01-17T05:41:02.772Z,0.60
2023-01-17T05:43:29.833Z,0.60
2023-01-17T05:45:56.914Z,0.63
2023-01-17T05:48:24.024Z,0.60
2023-01-17T05:50:52.147Z,0.70
2023-01-17T05:53:19.270Z,0.47
2023-01-17T05:55:47.638Z,0.50
2023-01-17T05:58:18.764Z,0.60
2023-01-17T06:00:46.468Z,0.60
2023-01-17T06:03:14.327Z,0.50
2023-01-17T06:05:41.694Z,1.13
2023-01-17T06:08:08.950Z,1.27
2023-01-17T06:10:36.256Z,2.28
2023-01-17T06:13:12.462Z,1.75
2023-01-17T06:15:40.107Z,1.47
2023-01-17T06:18:09.489Z,2.08
2023-01-17T06:20:37.085Z,2.47
2023-01-17T06:23:07.444Z,2.70
2023-01-17T06:25:39.684Z,2.75
2023-01-17T06:28:08.001Z,2.20
2023-01-17T06:30:35.820Z,2.80
2023-01-17T06:33:03.541Z,3.10
2023-01-17T06:35:31.379Z,3.17
2023-01-17T06:38:00.337Z,4.00
2023-01-17T06:40:29.029Z,3.23
2023-01-17T06:43:06.108Z,3.13
2023-01-17T06:45:35.613Z,3.33
2023-01-17T06:48:05.078Z,3.90
2023-01-17T06:50:33.308Z,3.88
2023-01-17T06:53:07.115Z,4.00
2023-01-17T06:55:35.173Z,4.00
2023-01-17T06:58:03.303Z,5.07
2023-01-17T07:00:34.945Z,5.40
2023-01-17T07:03:02.680Z,5.07
2023-01-17T07:05:30.025Z,4.57
2023-01-17T07:07:58.221Z,4.75
2023-01-17T07:10:25.279Z,4.53
2023-01-17T07:12:57.365Z,5.10
2023-01-17T07:15:24.411Z,4.90
2023-01-17T07:17:51.455Z,4.50
2023-01-17T07:20:18.645Z,5.57
2023-01-17T07:22:46.217Z,5.28
2023-01-17T07:25:13.432Z,5.18
2023-01-17T07:27:40.495Z,5.38
2023-01-17T07:30:09.149Z,5.47
2023-01-17T07:32:37.147Z,4.85
2023-01-17T07:35:04.985Z,4.30
2023-01-17T07:37:32.114Z,4.78
2023-01-17T07:40:00.952Z,5.63
2023-01-17T07:42:27.999Z,4.87
2023-01-17T07:44:55.165Z,4.88
2023-01-17T07:47:22.297Z,5.95
2023-01-17T07:49:49.414Z,5.43
2023-01-17T07:52:18.217Z,5.13
2023-01-17T07:54:45.391Z,4.90
2023-01-17T07:57:12.823Z,4.90
2023-01-17T07:59:39.987Z,5.25
2023-01-17T08:02:11.195Z,4.70
2023-01-17T08:04:38.396Z,4.60
2023-01-17T08:07:05.404Z,4.50
2023-01-17T08:09:32.514Z,5.25
2023-01-17T08:11:59.598Z,5.07
2023-01-17T08:14:26.988Z,5.03
2023-01-17T08:16:54.105Z,4.88
2023-01-17T08:19:22.331Z,4.73
2023-01-17T08:21:49.487Z,5.50
2023-01-17T08:24:16.545Z,4.57
2023-01-17T08:26:43.640Z,4.93
2023-01-17T08:29:10.747Z,4.97
2023-01-17T08:31:37.831Z,3.70
2023-01-17T08:34:04.960Z,3.67
2023-01-17T08:36:32.148Z,4.22
2023-01-17T08:38:59.803Z,4.18
2023-01-17T08:41:29.603Z,3.45
2023-01-17T08:43:57.150Z,3.77
2023-01-17T08:46:24.754Z,4.18
2023-01-17T08:48:59.947Z,3.00
2023-01-17T08:51:28.151Z,2.28
2023-01-17T08:53:56.741Z,2.42
2023-01-17T08:56:24.224Z,2.17
2023-01-17T08:58:51.287Z,2.30
2023-01-17T09:01:18.886Z,2.03
2023-01-17T09:03:48.002Z,1.80
2023-01-17T09:06:17.142Z,1.67
2023-01-17T09:08:46.991Z,1.93
2023-01-17T09:11:17.242Z,1.77
2023-01-17T09:13:44.760Z,1.70
2023-01-17T09:16:12.400Z,2.00
2023-01-17T09:18:39.513Z,1.90
2023-01-17T09:21:13.866Z,2.20
2023-01-17T09:23:42.169Z,2.30
2023-01-17T09:26:21.140Z,1.85
2023-01-17T09:28:48.892Z,1.83
2023-01-17T09:31:17.558Z,2.42
2023-01-17T09:33:45.084Z,2.40
2023-01-17T09:36:12.447Z,2.15
2023-01-17T09:38:40.122Z,2.67
2023-01-17T09:42:00.374Z,2.38
2023-01-17T09:44:47.441Z,2.45
2023-01-17T09:47:40.435Z,2.13
2023-01-17T09:50:30.738Z,2.65
2023-01-17T09:53:12.926Z,2.60
2023-01-17T09:56:18.898Z,2.60
2023-01-17T09:59:19.303Z,2.92
2023-01-17T10:02:26.333Z,2.87
2023-01-17T10:05:46.517Z,2.97
2023-01-17T10:08:37.840Z,2.75
2023-01-17T10:11:47.993Z,3.10
2023-01-17T10:14:51.495Z,3.60
2023-01-17T10:17:52.572Z,2.93
2023-01-17T10:20:37.289Z,3.70
2023-01-17T10:23:29.490Z,2.95
2023-01-17T10:26:19.151Z,3.35
2023-01-17T10:28:52.990Z,3.65
2023-01-17T10:31:25.919Z,3.30
2023-01-17T10:34:00.690Z,4.25
2023-01-17T10:36:38.046Z,3.70
2023-01-17T10:39:25.574Z,3.13
2023-01-17T10:42:12.929Z,2.85
2023-01-17T10:45:15.676Z,3.00
2023-01-17T10:47:50.806Z,2.92
2023-01-17T10:50:18.166Z,3.17
2023-01-17T10:53:31.101Z,3.58
2023-01-17T10:55:59.082Z,4.43
2023-01-17T10:58:26.391Z,4.30
2023-01-17T11:01:01.442Z,5.47
2023-01-17T11:03:29.319Z,6.03
2023-01-17T11:06:22.356Z,6.50
2023-01-17T11:08:58.673Z,5.82
2023-01-17T11:11:31.749Z,6.00
2023-01-17T11:14:03.098Z,6.35
2023-01-17T11:16:32.386Z,6.03
2023-01-17T11:19:29.704Z,6.45
2023-01-17T11:22:04.749Z,6.03
2023-01-17T11:24:47.482Z,6.03
2023-01-17T11:27:33.841Z,6.00
2023-01-17T11:30:21.825Z,5.25
2023-01-17T11:32:54.189Z,4.72
2023-01-17T11:35:25.555Z,5.47
2023-01-17T11:38:06.148Z,5.33
2023-01-17T11:40:43.113Z,5.60
2023-01-17T11:43:14.287Z,5.93
2023-01-17T11:45:42.599Z,5.88
2023-01-17T11:48:12.724Z,5.80
2023-01-17T11:50:55.488Z,5.80
2023-01-17T11:53:32.923Z,4.53
2023-01-17T11:56:05.156Z,5.53
2023-01-17T11:58:36.133Z,5.57
2023-01-17T12:01:35.296Z,5.63
2023-01-17T12:04:37.688Z,5.87
2023-01-17T12:07:22.486Z,5.65
2023-01-17T12:10:30.777Z,6.40
2023-01-17T12:13:47.252Z,5.65
2023-01-17T12:16:33.215Z,5.13
2023-01-17T12:19:32.134Z,5.50
2023-01-17T12:22:04.718Z,4.55
2023-01-17T12:25:20.391Z,3.97
2023-01-17T12:28:22.711Z,3.33
2023-01-17T12:31:16.247Z,3.60
2023-01-17T12:33:43.585Z,4.17
2023-01-17T12:36:30.964Z,3.40
2023-01-17T12:39:03.953Z,3.97
2023-01-17T12:42:02.257Z,2.53
2023-01-17T12:44:50.033Z,2.90
2023-01-17T12:47:20.817Z,2.50
2023-01-17T12:50:03.054Z,1.98
2023-01-17T12:52:58.006Z,1.92
2023-01-17T12:55:49.782Z,1.88
2023-01-17T12:58:28.753Z,2.00
2023-01-17T13:01:30.147Z,1.63
2023-01-17T13:04:18.849Z,1.38
2023-01-17T13:07:19.448Z,2.00
2023-01-17T13:10:22.769Z,1.73
2023-01-17T13:12:51.249Z,1.80
2023-01-17T13:15:25.146Z,1.60
2023-01-17T13:18:03.799Z,2.00
2023-01-17T13:20:56.147Z,1.98
2023-01-17T13:23:45.481Z,1.30
2023-01-17T13:26:36.370Z,1.73
2023-01-17T13:29:13.644Z,1.30
2023-01-17T13:32:06.767Z,1.50
2023-01-17T13:34:52.992Z,0.98
2023-01-17T13:37:49.971Z,0.80
2023-01-17T13:40:34.333Z,0.85
2023-01-17T13:43:04.674Z,0.43
2023-01-17T13:45:37.570Z,0.50
2023-01-17T13:48:16.987Z,0.50
2023-01-17T13:51:02.238Z,0.35
2023-01-17T13:53:31.300Z,0.38
2023-01-17T13:56:19.799Z,0.30
2023-01-17T13:58:57.549Z,0.32
2023-01-17T14:01:24.812Z,0.60
2023-01-17T14:03:52.541Z,0.70
2023-01-17T14:06:30.246Z,0.80
2023-01-17T14:09:22.616Z,0.97
2023-01-17T14:12:10.735Z,1.52
2023-01-17T14:14:40.882Z,0.50
2023-01-17T14:17:23.087Z,0.50
2023-01-17T14:20:12.442Z,0.60
2023-01-17T14:22:50.724Z,0.50
2023-01-17T14:25:22.398Z,1.15
2023-01-17T14:27:55.133Z,0.50
2023-01-17T14:30:34.101Z,0.50
2023-01-17T14:33:01.318Z,0.50
2023-01-17T14:35:38.497Z,0.63
2023-01-17T14:38:31.458Z,0.60
2023-01-17T14:41:09.538Z,0.50
2023-01-17T14:43:42.076Z,0.82
2023-01-17T14:46:28.668Z,0.70
2023-01-17T14:49:18.335Z,0.80
2023-01-17T14:52:00.322Z,0.60
2023-01-17T14:54:27.442Z,0.65
2023-01-17T14:57:15.894Z,0.70
2023-01-17T14:59:42.981Z,0.90
2023-01-17T15:02:15.883Z,1.27
2023-01-17T15:04:43.801Z,1.25
2023-01-17T15:07:16.735Z,1.40
2023-01-17T15:09:45.013Z,1.40
2023-01-17T15:12:16.373Z,1.27
2023-01-17T15:14:46.641Z,1.10
2023-01-17T15:17:26.114Z,1.60
2023-01-17T15:20:01.378Z,1.30
2023-01-17T15:22:29.664Z,1.42
2023-01-17T15:24:58.559Z,1.45
2023-01-17T15:27:26.701Z,1.40
2023-01-17T15:29:55.019Z,1.23
2023-01-17T15:32:31.064Z,1.50
2023-01-17T15:34:59.940Z,1.85
2023-01-17T15:37:34.921Z,1.60
2023-01-17T15:40:21.916Z,1.50
2023-01-17T15:42:59.370Z,1.75
2023-01-17T15:45:32.368Z,1.83
2023-01-17T15:48:40.541Z,1.67
2023-01-17T15:51:11.106Z,1.67
2023-01-17T15:53:42.505Z,1.43
2023-01-17T15:56:39.001Z,1.85
2023-01-17T15:59:45.547Z,1.98
2023-01-17T16:02:55.167Z,1.98
2023-01-17T16:05:22.788Z,2.20
2023-01-17T16:07:56.370Z,2.57
2023-01-17T16:10:31.700Z,2.75
2023-01-17T16:13:00.036Z,2.70
2023-01-17T16:15:28.272Z,2.75
2023-01-17T16:18:16.033Z,2.90
2023-01-17T16:21:15.480Z,3.50
2023-01-17T16:23:42.819Z,3.88
2023-01-17T16:26:10.886Z,3.58
2023-01-17T16:28:38.922Z,3.40
2023-01-17T16:31:06.238Z,3.67
2023-01-17T16:33:33.341Z,4.00
2023-01-17T16:36:00.469Z,4.40
2023-01-17T16:38:27.602Z,4.47
2023-01-17T16:40:54.790Z,5.28
2023-01-17T16:43:21.883Z,6.10
2023-01-17T16:45:53.096Z,7.27
2023-01-17T16:48:21.384Z,8.52
2023-01-17T16:50:52.158Z,10.00
2023-01-17T16:53:26.652Z,11.60
2023-01-17T16:55:59.793Z,11.88
2023-01-17T16:58:26.878Z,11.33
2023-01-17T17:00:55.575Z,10.48
2023-01-17T17:03:23.053Z,9.98
2023-01-17T17:05:59.713Z,10.27
2023-01-17T17:08:29.228Z,10.85
2023-01-17T17:11:17.924Z,10.00
2023-01-17T17:13:48.145Z,9.65
2023-01-17T17:16:22.859Z,9.52
2023-01-17T17:19:16.227Z,9.40
2023-01-17T17:21:43.390Z,9.45
2023-01-17T17:24:15.131Z,9.23
2023-01-17T17:26:42.710Z,8.55
2023-01-17T17:29:12.973Z,8.98
2023-01-17T17:31:41.953Z,9.50
2023-01-17T17:34:12.546Z,9.10
2023-01-17T17:36:39.911Z,8.57
2023-01-17T17:39:11.472Z,9.07
2023-01-17T17:41:42.768Z,9.95
2023-01-17T17:44:10.146Z,11.10
2023-01-17T17:46:37.732Z,12.77
2023-01-17T17:49:06.678Z,12.43
2023-01-17T17:51:39.552Z,11.93
2023-01-17T17:54:13.759Z,12.07
2023-01-17T17:56:46.274Z,11.88
2023-01-17T17:59:18.149Z,12.25
2023-01-17T18:01:46.383Z,13.40
2023-01-17T18:04:14.097Z,13.75
2023-01-17T18:06:42.094Z,13.57
2023-01-17T18:09:11.779Z,14.50
2023-01-17T18:11:41.684Z,14.50
2023-01-17T18:14:13.128Z,13.83
2023-01-17T18:16:43.646Z,13.40
2023-01-17T18:19:21.935Z,13.73
2023-01-17T18:21:51.205Z,12.95
2023-01-17T18:24:22.245Z,13.48
2023-01-17T18:26:51.932Z,12.43
2023-01-17T18:29:24.857Z,16.17
2023-01-17T18:31:53.395Z,21.85
2023-01-17T18:34:24.205Z,23.35
2023-01-17T18:36:52.364Z,17.50
2023-01-17T18:39:24.390Z,15.10
2023-01-17T18:41:52.332Z,12.70
2023-01-17T18:44:21.980Z,11.88
2023-01-17T18:46:50.714Z,10.00
2023-01-17T18:49:19.150Z,9.10
2023-01-17T18:51:51.076Z,9.03
2023-01-17T18:54:20.085Z,8.35
2023-01-17T18:56:47.560Z,8.23
2023-01-17T18:59:18.757Z,8.02
2023-01-17T19:01:46.656Z,7.95
2023-01-17T19:04:15.938Z,7.40
2023-01-17T19:06:46.270Z,8.73
2023-01-17T19:09:16.026Z,8.95
2023-01-17T19:11:45.002Z,9.38
2023-01-17T19:14:12.790Z,9.57
2023-01-17T19:16:42.068Z,8.87
2023-01-17T19:19:14.172Z,8.10
2023-01-17T19:21:41.420Z,9.43
2023-01-17T19:24:13.017Z,9.48
2023-01-17T19:26:40.728Z,10.40
2023-01-17T19:29:07.892Z,11.03
2023-01-17T19:31:42.283Z,10.77
2023-01-17T19:34:09.791Z,10.85
2023-01-17T19:36:38.697Z,10.55
2023-01-17T19:42:15.649Z,9.00
2023-01-17T19:44:43.345Z,10.30
2023-01-17T19:47:10.870Z,11.15
2023-01-17T19:49:44.161Z,10.63
2023-01-17T19:52:11.265Z,10.20
2023-01-17T19:54:38.303Z,11.00
2023-01-17T19:57:05.402Z,9.77
2023-01-17T19:59:32.511Z,10.48
2023-01-17T20:02:01.217Z,10.45
2023-01-17T20:04:28.501Z,10.52
2023-01-17T20:06:55.534Z,9.47
2023-01-17T20:09:23.837Z,9.80
2023-01-17T20:11:51.211Z,10.32
2023-01-17T20:14:18.321Z,10.77
2023-01-17T20:16:47.461Z,10.77
2023-01-17T20:19:15.353Z,10.23
2023-01-17T20:21:42.440Z,10.73
2023-01-17T20:24:11.105Z,10.57
2023-01-17T20:26:38.311Z,9.55
2023-01-17T20:29:14.956Z,9.90
2023-01-17T20:31:44.076Z,8.70
2023-01-17T20:34:14.074Z,8.75
2023-01-17T20:36:42.332Z,7.97
2023-01-17T20:39:10.953Z,8.23
2023-01-17T20:41:40.999Z,7.90
2023-01-17T20:44:13.742Z,6.90
2023-01-17T20:46:41.501Z,7.90
2023-01-17T20:49:14.972Z,8.00
2023-01-17T20:51:44.247Z,8.10
2023-01-17T20:54:18.045Z,7.82
2023-01-17T20:56:47.291Z,7.57
2023-01-17T20:59:18.170Z,8.15
2023-01-17T21:01:45.836Z,7.15
2023-01-17T21:04:14.620Z,7.32
2023-01-17T21:06:43.478Z,7.18
2023-01-17T21:09:14.663Z,6.97
2023-01-17T21:11:41.954Z,7.53
2023-01-17T21:14:09.139Z,7.65
2023-01-17T21:16:36.385Z,7.97
2023-01-17T21:19:03.879Z,8.38
2023-01-17T21:21:31.169Z,7.90
2023-01-17T21:23:59.381Z,8.80
2023-01-17T21:26:28.796Z,8.98
2023-01-17T21:28:58.059Z,8.55
2023-01-17T21:31:28.695Z,9.10
2023-01-17T21:34:01.609Z,8.50
2023-01-17T21:36:33.821Z,8.18
2023-01-17T21:39:06.356Z,8.98
2023-01-17T21:41:37.981Z,9.00
2023-01-17T21:44:10.659Z,9.48
2023-01-17T21:46:40.028Z,8.47
2023-01-17T21:49:12.771Z,8.23
2023-01-17T21:51:53.794Z,7.90
2023-01-17T21:54:44.804Z,7.68
2023-01-17T21:57:32.641Z,7.97
2023-01-17T21:59:59.749Z,7.97
2023-01-17T22:02:26.908Z,7.68
2023-01-17T22:04:57.060Z,7.47
2023-01-17T22:07:26.871Z,7.22
2023-01-17T22:09:54.074Z,6.78
2023-01-17T22:12:21.122Z,7.03
2023-01-17T22:14:48.190Z,6.30
2023-01-17T22:17:15.294Z,7.82
2023-01-17T22:19:42.352Z,7.45
2023-01-17T22:22:09.448Z,8.05
2023-01-17T22:24:36.507Z,8.37
2023-01-17T22:27:03.971Z,8.82
2023-01-17T22:29:33.432Z,8.52
2023-01-17T22:32:00.539Z,8.70
2023-01-17T22:34:27.650Z,9.10
2023-01-17T22:36:54.727Z,8.90
2023-01-17T22:39:21.785Z,8.73
2023-01-17T22:41:49.220Z,8.85
2023-01-17T22:44:16.273Z,9.13
2023-01-17T22:46:43.346Z,9.00
2023-01-17T22:49:15.655Z,9.13
2023-01-17T22:51:42.799Z,8.02
2023-01-17T22:54:11.333Z,9.20
2023-01-17T22:56:38.421Z,9.35
2023-01-17T22:59:11.214Z,8.95
2023-01-17T23:01:42.911Z,9.27
2023-01-17T23:04:13.969Z,9.10
2023-01-17T23:06:42.127Z,9.45
2023-01-17T23:09:14.726Z,8.20
2023-01-17T23:11:47.005Z,10.23
2023-01-17T23:14:53.748Z,8.43
2023-01-17T23:17:41.636Z,8.73
2023-01-17T23:20:10.938Z,9.00
2023-01-17T23:22:38.547Z,8.82
2023-01-17T23:25:14.043Z,8.20
2023-01-17T23:28:03.205Z,8.80
2023-01-17T23:30:41.919Z,8.73
2023-01-17T23:33:14.740Z,8.45
2023-01-17T23:35:45.381Z,8.57
2023-01-17T23:38:30.699Z,8.70
2023-01-17T23:41:24.937Z,8.63
2023-01-17T23:43:53.928Z,8.32
2023-01-17T23:46:21.665Z,8.02
2023-01-17T23:48:49.406Z,8.70
2023-01-17T23:51:16.559Z,9.05
2023-01-17T23:53:43.620Z,8.37
2023-01-17T23:56:19.346Z,8.90
2023-01-17T23:58:46.469Z,8.77
